Waterloo, Iowa
Current Conditions -  °F | °C
As of 1:54 PM on Thursday 27 Nov 2014 (Local Time) from KALO Reporting Station
Clear Clear  
Wind Chill: -4°   Ceiling: Unl
Heat Index:   Visibility: 10mi
Dew Point: -1°   Wind: 9mph
Humidity: 64%   Direction: 310°NW
Pressure: 30.46"   Gusts: NA
Location:  42.49°N, 92.34°W
Report Text: KALO 271954Z 31008KT 10SM CLR M13/M18 A3046 RMK AO2 SLP332 T11281183
Loading
Personal Weather Stations






























Interactive Weather Map New forecast layout! Learn more

10-Day Weather Forecast

Advertisements
Track Severe Weather on mobile